Time;durP1;ratioP1;P1;durP2;ratioP2;P2;SDS_P1;SDS_P2;PMS_P1;PMS_P2;Temp;Humidity;BMP_temperature;BMP_pressure;BME280_temperature;BME280_humidity;BME280_pressure;Samples;Min_cycle;Max_cycle;Signal;HPM_P1;HPM_P2
2022/03/16 00:02:24;;;;;;;104.97;31.30;;;4.70;97.10;;;;;;5066675;28;20509;-76
2022/03/16 00:04:52;;;;;;;93.63;31.73;;;4.80;97.20;;;;;;5068281;28;20047;-74
2022/03/16 00:07:18;;;;;;;128.43;31.80;;;4.80;97.20;;;;;;5067542;28;20032;-74
2022/03/16 00:09:44;;;;;;;100.63;34.03;;;4.90;97.20;;;;;;5084038;28;20028;-74
2022/03/16 00:12:11;;;;;;;103.70;33.83;;;5.00;97.30;;;;;;5069166;28;20444;-73
2022/03/16 00:14:37;;;;;;;126.40;33.65;;;5.00;97.20;;;;;;5057432;28;20120;-74
2022/03/16 00:17:03;;;;;;;114.60;33.35;;;5.10;97.20;;;;;;5066273;28;20104;-74
2022/03/16 00:19:29;;;;;;;120.50;33.17;;;5.10;97.20;;;;;;5070013;28;20070;-74
2022/03/16 00:21:56;;;;;;;114.30;34.67;;;5.10;97.20;;;;;;5075699;28;20033;-74
2022/03/16 00:24:22;;;;;;;104.93;33.97;;;5.10;97.20;;;;;;5067156;28;20482;-74
2022/03/16 00:26:48;;;;;;;109.30;34.08;;;5.10;97.20;;;;;;5062874;28;20037;-74
2022/03/16 00:29:14;;;;;;;118.82;35.00;;;5.20;97.20;;;;;;5063713;28;20028;-74
2022/03/16 00:31:39;;;;;;;123.60;36.58;;;5.30;97.20;;;;;;5068746;28;20016;-74
2022/03/16 00:34:05;;;;;;;138.00;36.80;;;5.20;97.20;;;;;;5070657;28;20045;-74
2022/03/16 00:36:30;;;;;;;154.98;38.80;;;5.30;97.20;;;;;;5067275;28;20033;-74
2022/03/16 00:38:56;;;;;;;109.13;35.75;;;5.30;97.20;;;;;;5068735;28;20028;-74
2022/03/16 00:41:21;;;;;;;108.97;34.75;;;5.30;97.20;;;;;;5068828;28;20044;-75
2022/03/16 00:43:46;;;;;;;117.00;36.03;;;5.40;97.30;;;;;;5058023;28;20052;-74
2022/03/16 00:46:12;;;;;;;111.05;35.65;;;5.40;97.30;;;;;;5066414;28;20074;-74
2022/03/16 00:48:38;;;;;;;108.63;34.17;;;5.40;97.20;;;;;;5067275;28;20040;-74
2022/03/16 00:51:03;;;;;;;110.72;35.88;;;5.40;97.30;;;;;;5063195;28;20459;-74
2022/03/16 00:53:30;;;;;;;122.60;35.80;;;5.40;97.20;;;;;;5069351;28;20519;-75
2022/03/16 00:55:56;;;;;;;115.85;35.78;;;5.40;97.30;;;;;;5064022;28;20066;-74
2022/03/16 00:58:24;;;;;;;116.25;33.42;;;5.40;97.30;;;;;;5069209;28;20036;-74
2022/03/16 01:00:50;;;;;;;100.03;34.45;;;5.40;97.30;;;;;;5077244;28;20100;-74
2022/03/16 01:03:15;;;;;;;104.78;35.10;;;5.40;97.20;;;;;;5063477;28;20127;-74
2022/03/16 01:05:41;;;;;;;97.50;32.88;;;5.30;97.20;;;;;;5070391;28;20035;-74
2022/03/16 01:08:06;;;;;;;114.47;35.65;;;5.30;97.20;;;;;;5071256;28;20024;-74
2022/03/16 01:10:32;;;;;;;113.35;35.65;;;5.40;97.20;;;;;;5056475;28;20102;-73
2022/03/16 01:12:57;;;;;;;97.80;34.55;;;5.40;97.30;;;;;;5069729;28;20115;-75
2022/03/16 01:15:23;;;;;;;112.72;35.65;;;5.40;97.30;;;;;;5065938;28;20347;-75
2022/03/16 01:17:50;;;;;;;104.45;35.65;;;5.40;97.30;;;;;;5071970;28;20349;-75
2022/03/16 01:20:16;;;;;;;99.28;36.22;;;5.40;97.30;;;;;;5072560;28;20184;-76
2022/03/16 01:22:42;;;;;;;110.47;36.72;;;5.40;97.30;;;;;;5075259;28;20046;-75
2022/03/16 01:25:07;;;;;;;111.07;36.25;;;5.40;97.30;;;;;;5067298;28;20044;-75
2022/03/16 01:27:33;;;;;;;109.13;38.00;;;5.40;97.30;;;;;;5072247;28;20024;-76
2022/03/16 01:29:58;;;;;;;110.43;38.53;;;5.40;97.30;;;;;;5064816;28;20029;-75
2022/03/16 01:32:24;;;;;;;116.93;38.05;;;5.40;97.30;;;;;;5079582;28;20113;-75
2022/03/16 01:34:50;;;;;;;115.38;38.70;;;5.40;97.30;;;;;;5071006;28;20362;-75
2022/03/16 01:37:15;;;;;;;115.70;39.10;;;5.50;97.30;;;;;;5070704;28;20366;-75
2022/03/16 01:39:41;;;;;;;123.28;38.90;;;5.50;97.40;;;;;;5071034;28;20025;-75
2022/03/16 01:42:07;;;;;;;149.02;39.58;;;5.50;97.40;;;;;;5072738;28;20052;-75
2022/03/16 01:44:48;;;;;;;115.57;38.63;;;5.50;97.40;;;;;;5064578;28;20043;-75
2022/03/16 01:47:15;;;;;;;124.57;39.38;;;5.50;97.40;;;;;;5070975;28;20438;-75
2022/03/16 01:49:41;;;;;;;127.65;40.50;;;5.50;97.30;;;;;;5070438;28;20480;-75
2022/03/16 01:52:08;;;;;;;121.50;39.30;;;5.50;97.30;;;;;;5069731;28;20384;-75
2022/03/16 01:54:35;;;;;;;121.38;40.03;;;5.50;97.40;;;;;;5071194;28;20020;-75
2022/03/16 01:57:01;;;;;;;137.07;39.55;;;5.50;97.30;;;;;;5060347;28;20036;-75
2022/03/16 01:59:26;;;;;;;119.07;39.10;;;5.50;97.30;;;;;;5071721;28;20036;-75
2022/03/16 02:01:52;;;;;;;120.55;37.90;;;5.50;97.40;;;;;;5082884;28;20473;-74
2022/03/16 02:04:17;;;;;;;119.03;38.22;;;5.50;97.30;;;;;;5070517;28;20106;-75
2022/03/16 02:06:43;;;;;;;127.07;40.25;;;5.50;97.40;;;;;;5069434;28;20021;-75
2022/03/16 02:09:09;;;;;;;113.28;37.08;;;5.40;97.30;;;;;;5070382;28;20341;-75
2022/03/16 02:11:34;;;;;;;117.03;37.78;;;5.40;97.30;;;;;;5067235;28;20035;-75
2022/03/16 02:14:01;;;;;;;114.03;38.15;;;5.30;97.30;;;;;;5071503;28;20047;-75
2022/03/16 02:16:27;;;;;;;118.75;39.25;;;5.30;97.40;;;;;;5078523;28;20031;-75
2022/03/16 02:18:52;;;;;;;111.80;37.33;;;5.30;97.40;;;;;;5072654;28;20331;-75
2022/03/16 02:21:20;;;;;;;133.20;40.15;;;5.30;97.40;;;;;;5068848;28;20024;-75
2022/03/16 02:23:45;;;;;;;141.15;40.20;;;5.30;97.40;;;;;;5069606;28;20020;-75
2022/03/16 02:26:14;;;;;;;140.48;38.55;;;5.20;97.40;;;;;;5069870;28;20039;-75
2022/03/16 02:28:40;;;;;;;127.18;36.90;;;5.10;97.40;;;;;;5065841;28;20045;-75
2022/03/16 02:31:05;;;;;;;131.63;38.42;;;5.00;97.30;;;;;;5070271;28;20103;-75
2022/03/16 02:33:31;;;;;;;144.73;36.97;;;4.90;97.30;;;;;;5072464;28;20115;-75
2022/03/16 02:35:56;;;;;;;124.00;38.80;;;4.80;97.40;;;;;;5061919;28;20119;-75
2022/03/16 02:38:22;;;;;;;114.15;36.08;;;4.70;97.40;;;;;;5070026;28;20463;-75
2022/03/16 02:40:48;;;;;;;114.15;36.80;;;4.60;97.40;;;;;;5069134;28;20535;-75
2022/03/16 02:43:14;;;;;;;111.75;35.95;;;4.60;97.50;;;;;;5070291;28;20127;-75
2022/03/16 02:45:39;;;;;;;121.60;36.03;;;4.50;97.50;;;;;;5068290;28;20107;-75
2022/03/16 02:48:05;;;;;;;120.90;37.42;;;4.50;97.50;;;;;;5067089;28;20047;-75
2022/03/16 02:50:31;;;;;;;117.63;36.85;;;4.40;97.50;;;;;;5066934;28;20032;-75
2022/03/16 02:52:57;;;;;;;170.93;38.97;;;4.30;97.50;;;;;;5068974;28;20031;-75
2022/03/16 02:55:23;;;;;;;120.03;37.10;;;4.20;97.40;;;;;;5061377;28;20040;-75
2022/03/16 02:57:48;;;;;;;125.43;36.92;;;4.10;97.40;;;;;;5064396;28;20032;-75
2022/03/16 03:00:18;;;;;;;137.60;36.50;;;4.00;97.50;;;;;;5066683;28;20028;-75
2022/03/16 03:02:44;;;;;;;107.75;34.17;;;4.00;97.50;;;;;;5067739;28;20024;-75
2022/03/16 03:05:10;;;;;;;124.00;36.53;;;4.00;97.50;;;;;;5062420;28;20072;-75
2022/03/16 03:07:36;;;;;;;122.05;37.45;;;3.90;97.50;;;;;;5064590;28;20063;-75
2022/03/16 03:10:01;;;;;;;117.90;37.15;;;3.80;97.50;;;;;;5068012;28;20086;-75
2022/03/16 03:12:27;;;;;;;136.95;38.20;;;3.70;97.50;;;;;;5077713;28;21887;-75
2022/03/16 03:14:52;;;;;;;114.07;36.13;;;3.70;97.60;;;;;;5064338;28;20033;-75
2022/03/16 03:17:18;;;;;;;121.97;37.00;;;3.60;97.50;;;;;;5066680;28;20024;-75
2022/03/16 03:19:44;;;;;;;131.98;38.75;;;3.60;97.50;;;;;;5068032;28;20043;-75
2022/03/16 03:22:09;;;;;;;141.70;38.60;;;3.50;97.50;;;;;;5068093;28;20471;-75
2022/03/16 03:24:35;;;;;;;135.73;39.50;;;3.50;97.60;;;;;;5062074;28;20103;-75
2022/03/16 03:27:01;;;;;;;131.60;38.50;;;3.50;97.70;;;;;;5066497;28;20464;-75
2022/03/16 03:29:27;;;;;;;124.15;38.42;;;3.50;97.70;;;;;;5069735;28;20482;-75
2022/03/16 03:31:52;;;;;;;141.20;40.03;;;3.50;97.70;;;;;;5075432;28;20047;-75
2022/03/16 03:34:18;;;;;;;151.05;40.65;;;3.50;97.70;;;;;;5062219;28;20029;-75
2022/03/16 03:36:43;;;;;;;138.43;38.85;;;3.40;97.70;;;;;;5061950;28;20347;-75
2022/03/16 03:39:10;;;;;;;154.98;39.75;;;3.40;97.70;;;;;;5068879;28;20384;-75
2022/03/16 03:41:35;;;;;;;157.10;38.75;;;3.40;97.70;;;;;;5071196;28;20129;-77
2022/03/16 03:44:01;;;;;;;133.52;39.10;;;3.40;97.70;;;;;;5065567;28;20057;-75
2022/03/16 03:46:26;;;;;;;149.40;38.28;;;3.40;97.70;;;;;;5067487;28;20039;-75
2022/03/16 03:48:52;;;;;;;149.45;39.20;;;3.40;97.70;;;;;;5068024;28;20043;-75
2022/03/16 03:51:18;;;;;;;140.98;38.70;;;3.30;97.70;;;;;;5066578;28;20048;-75
2022/03/16 03:53:43;;;;;;;163.45;40.70;;;3.30;97.70;;;;;;5067822;28;20059;-75
2022/03/16 03:56:09;;;;;;;158.35;43.97;;;3.40;97.80;;;;;;5057730;28;20198;-75
2022/03/16 03:58:35;;;;;;;178.25;43.95;;;3.50;97.90;;;;;;5066557;28;20046;-75
2022/03/16 04:01:01;;;;;;;166.57;46.05;;;3.70;97.90;;;;;;5067816;28;20020;-75
2022/03/16 04:03:26;;;;;;;167.13;47.08;;;3.70;98.00;;;;;;5069617;28;20363;-75
2022/03/16 04:05:52;;;;;;;166.35;45.58;;;3.70;98.00;;;;;;5057861;28;20545;-75
2022/03/16 04:08:17;;;;;;;183.13;45.72;;;3.70;98.00;;;;;;5066293;28;20044;-75
2022/03/16 04:10:43;;;;;;;197.02;50.42;;;3.80;98.00;;;;;;5067303;28;20043;-75
2022/03/16 04:13:08;;;;;;;217.35;47.92;;;3.80;98.00;;;;;;5068457;28;20036;-74
2022/03/16 04:15:34;;;;;;;264.23;51.33;;;3.90;98.00;;;;;;5068279;28;20367;-75
2022/03/16 04:17:59;;;;;;;242.68;50.75;;;4.00;98.00;;;;;;5068771;28;20451;-75
2022/03/16 04:20:26;;;;;;;296.58;52.75;;;4.00;97.90;;;;;;5070469;28;20375;-75
2022/03/16 04:22:51;;;;;;;221.98;50.90;;;3.90;97.90;;;;;;5069249;28;20033;-75
2022/03/16 04:25:17;;;;;;;225.32;51.40;;;3.90;97.80;;;;;;5064522;28;20082;-75
2022/03/16 04:27:42;;;;;;;242.60;51.45;;;3.80;97.80;;;;;;5067438;28;20057;-75
2022/03/16 04:30:08;;;;;;;217.90;50.17;;;3.70;97.80;;;;;;5069105;28;20074;-75
2022/03/16 04:32:34;;;;;;;202.70;48.53;;;3.80;97.80;;;;;;5069534;28;20035;-75
2022/03/16 04:34:59;;;;;;;191.88;48.53;;;3.70;97.80;;;;;;5071333;28;20033;-75
2022/03/16 04:37:25;;;;;;;186.15;46.42;;;3.70;97.80;;;;;;5070947;28;20060;-75
2022/03/16 04:39:50;;;;;;;175.25;47.33;;;3.70;97.80;;;;;;5066555;28;20460;-75
2022/03/16 04:42:16;;;;;;;156.25;47.13;;;3.70;97.80;;;;;;5071174;28;20050;-75
2022/03/16 04:44:41;;;;;;;150.32;45.33;;;3.70;97.80;;;;;;5067215;28;20090;-75
2022/03/16 04:47:07;;;;;;;139.13;43.53;;;3.70;97.80;;;;;;5073502;28;20020;-74
2022/03/16 04:49:36;;;;;;;138.13;42.80;;;3.60;97.80;;;;;;5071716;28;20021;-75
2022/03/16 04:52:02;;;;;;;151.10;44.72;;;3.50;97.80;;;;;;5068651;28;20082;-75
2022/03/16 04:54:28;;;;;;;148.18;43.85;;;3.50;97.80;;;;;;5067879;28;20731;-75
2022/03/16 04:56:55;;;;;;;137.88;40.17;;;3.40;97.80;;;;;;5068776;28;20039;-75
2022/03/16 04:59:20;;;;;;;138.45;42.30;;;3.30;97.80;;;;;;5067813;28;20363;-75
2022/03/16 05:01:46;;;;;;;131.32;39.25;;;3.20;97.80;;;;;;5076197;28;20036;-75
2022/03/16 05:04:11;;;;;;;139.52;40.40;;;3.20;97.80;;;;;;5064172;28;20025;-75
2022/03/16 05:06:37;;;;;;;131.07;40.40;;;3.20;97.90;;;;;;5063839;28;20024;-75
2022/03/16 05:09:02;;;;;;;133.65;39.72;;;3.20;97.90;;;;;;5061211;28;20036;-75
2022/03/16 05:11:28;;;;;;;117.68;36.35;;;3.30;98.00;;;;;;5068399;28;20028;-75
2022/03/16 05:13:53;;;;;;;117.45;37.08;;;3.30;98.00;;;;;;5067831;28;20043;-75
2022/03/16 05:16:19;;;;;;;140.15;37.78;;;3.30;98.10;;;;;;5071368;28;20042;-75
2022/03/16 05:18:45;;;;;;;139.98;38.38;;;3.40;98.00;;;;;;5063924;28;20031;-74
2022/03/16 05:21:12;;;;;;;149.05;38.03;;;3.20;98.00;;;;;;5061397;28;20487;-75
2022/03/16 05:23:38;;;;;;;125.18;37.15;;;3.10;98.00;;;;;;5071696;28;20461;-75
2022/03/16 05:26:04;;;;;;;116.35;36.33;;;3.20;98.00;;;;;;5067236;28;20094;-75
2022/03/16 05:28:30;;;;;;;116.40;34.78;;;3.20;98.00;;;;;;5064101;28;20085;-75
2022/03/16 05:30:56;;;;;;;119.28;36.38;;;3.30;98.00;;;;;;5068023;28;20035;-73
2022/03/16 05:33:23;;;;;;;129.15;36.45;;;3.30;98.10;;;;;;5066814;28;20048;-73
2022/03/16 05:35:49;;;;;;;109.18;35.83;;;3.40;98.10;;;;;;5058341;28;20128;-74
2022/03/16 05:38:14;;;;;;;114.85;37.22;;;3.30;98.10;;;;;;5065653;28;20112;-74
2022/03/16 05:40:41;;;;;;;134.80;37.70;;;3.20;98.10;;;;;;5064146;28;20024;-74
2022/03/16 05:43:06;;;;;;;122.18;36.33;;;3.10;98.00;;;;;;5058950;28;20562;-74
2022/03/16 05:45:32;;;;;;;136.35;37.55;;;3.00;98.00;;;;;;5058918;28;20032;-74
2022/03/16 05:47:58;;;;;;;124.70;37.95;;;3.10;98.00;;;;;;5062908;28;20129;-73
2022/03/16 05:50:28;;;;;;;125.28;36.80;;;3.10;98.00;;;;;;5067262;28;20041;-74
2022/03/16 05:53:01;;;;;;;142.75;38.78;;;3.20;98.00;;;;;;5065899;28;20063;-74
2022/03/16 05:55:27;;;;;;;121.72;38.38;;;3.10;98.00;;;;;;5065902;28;20052;-73
2022/03/16 05:57:53;;;;;;;146.85;38.75;;;3.10;98.00;;;;;;5056518;28;20059;-73
2022/03/16 06:00:22;;;;;;;130.15;36.90;;;3.20;98.00;;;;;;5062099;28;20142;-74
2022/03/16 06:02:49;;;;;;;125.93;38.33;;;3.20;98.10;;;;;;5057840;28;20029;-74
2022/03/16 06:05:15;;;;;;;136.98;40.40;;;3.30;98.00;;;;;;5066762;28;20038;-74
2022/03/16 06:07:42;;;;;;;134.43;38.72;;;3.30;98.10;;;;;;5065713;28;20059;-74
2022/03/16 06:10:10;;;;;;;126.90;37.97;;;3.40;98.10;;;;;;5069201;28;20094;-74
2022/03/16 06:12:55;;;;;;;143.45;40.08;;;3.40;98.10;;;;;;5065504;28;20032;-75
2022/03/16 06:15:21;;;;;;;128.27;40.03;;;3.50;98.10;;;;;;5058987;28;20036;-74
2022/03/16 06:17:47;;;;;;;128.40;39.92;;;3.50;98.10;;;;;;5067100;28;20016;-77
2022/03/16 06:20:13;;;;;;;123.70;40.92;;;3.60;98.10;;;;;;5058693;28;20127;-73
2022/03/16 06:22:38;;;;;;;127.57;41.28;;;3.70;98.10;;;;;;5068231;28;20028;-73
2022/03/16 06:25:04;;;;;;;136.02;42.25;;;3.80;98.10;;;;;;5070812;28;20016;-75
2022/03/16 06:27:29;;;;;;;127.25;41.50;;;4.00;98.10;;;;;;5067639;28;20471;-74
2022/03/16 06:29:55;;;;;;;131.60;41.47;;;4.10;98.10;;;;;;5068847;28;20043;-75
2022/03/16 06:32:20;;;;;;;131.70;42.25;;;4.20;98.10;;;;;;5067552;28;20375;-75
2022/03/16 06:34:46;;;;;;;131.27;40.85;;;4.30;98.10;;;;;;5070585;28;20076;-75
2022/03/16 06:37:13;;;;;;;122.20;42.15;;;4.40;98.10;;;;;;5068651;28;20029;-75
2022/03/16 06:39:38;;;;;;;125.82;40.33;;;4.50;98.10;;;;;;5067688;28;20104;-75
2022/03/16 06:42:04;;;;;;;136.95;42.55;;;4.60;98.10;;;;;;5063788;28;20041;-75
2022/03/16 06:44:30;;;;;;;133.50;40.85;;;4.60;98.10;;;;;;5060622;28;20375;-75
2022/03/16 06:46:55;;;;;;;126.50;40.03;;;4.70;98.00;;;;;;5062585;28;20032;-75
2022/03/16 06:49:21;;;;;;;117.88;38.47;;;4.70;98.00;;;;;;5063030;28;20554;-75
2022/03/16 06:51:46;;;;;;;115.70;37.50;;;4.80;98.00;;;;;;5064098;28;20538;-75
2022/03/16 06:54:12;;;;;;;120.47;37.45;;;4.80;98.00;;;;;;5065612;28;20063;-76
2022/03/16 06:56:38;;;;;;;102.90;35.95;;;4.90;98.00;;;;;;5067994;28;20032;-76
2022/03/16 06:59:03;;;;;;;107.85;35.95;;;5.00;98.00;;;;;;5062438;28;20492;-75
2022/03/16 07:01:29;;;;;;;111.85;35.47;;;5.00;98.00;;;;;;5067705;28;20029;-75
2022/03/16 07:03:54;;;;;;;92.95;32.05;;;5.10;98.00;;;;;;5066597;28;20368;-76
2022/03/16 07:06:20;;;;;;;94.20;31.23;;;5.10;97.90;;;;;;5069087;28;20028;-75
2022/03/16 07:08:46;;;;;;;88.85;30.35;;;5.20;97.90;;;;;;5069141;28;20078;-76
2022/03/16 07:11:12;;;;;;;87.25;29.52;;;5.30;97.90;;;;;;5067715;28;20029;-76
2022/03/16 07:13:41;;;;;;;80.20;27.98;;;5.30;97.90;;;;;;5065316;28;20147;-76
2022/03/16 07:16:07;;;;;;;84.32;27.83;;;5.40;97.90;;;;;;5061859;28;20043;-76
2022/03/16 07:18:32;;;;;;;71.57;25.73;;;5.50;97.90;;;;;;5066781;28;20131;-77
2022/03/16 07:20:58;;;;;;;66.93;23.73;;;5.40;97.80;;;;;;5068596;28;20032;-76
2022/03/16 07:23:24;;;;;;;66.55;24.52;;;5.50;97.80;;;;;;5070385;28;20025;-76
2022/03/16 07:25:53;;;;;;;63.75;22.15;;;5.50;97.80;;;;;;5069420;28;20024;-76
2022/03/16 07:28:20;;;;;;;59.90;21.27;;;5.60;97.80;;;;;;5065127;28;20029;-77
2022/03/16 07:30:47;;;;;;;61.83;20.95;;;5.60;97.80;;;;;;5058966;28;20772;-74
2022/03/16 07:33:13;;;;;;;52.45;19.38;;;5.60;97.70;;;;;;5063436;28;20072;-75
2022/03/16 07:35:39;;;;;;;55.33;19.77;;;5.60;97.70;;;;;;5063945;28;20463;-75
2022/03/16 07:38:06;;;;;;;55.45;18.83;;;5.70;97.70;;;;;;5057003;28;20476;-75
2022/03/16 07:40:35;;;;;;;48.97;17.58;;;5.80;97.70;;;;;;5062623;28;20060;-75
2022/03/16 07:43:00;;;;;;;49.45;18.63;;;5.80;97.40;;;;;;5081607;28;20044;-75
2022/03/16 07:45:26;;;;;;;43.20;17.75;;;5.80;97.40;;;;;;5067516;28;20039;-75
2022/03/16 07:47:56;;;;;;;47.13;16.60;;;6.00;97.50;;;;;;5058261;28;20502;-75
2022/03/16 07:50:22;;;;;;;45.72;16.25;;;6.00;97.40;;;;;;5068082;28;20359;-75
2022/03/16 07:52:47;;;;;;;39.95;15.07;;;6.10;97.40;;;;;;5059778;28;20024;-75
2022/03/16 07:55:14;;;;;;;33.95;14.65;;;6.10;97.20;;;;;;5068983;28;20410;-75
2022/03/16 07:57:40;;;;;;;34.15;13.32;;;6.10;97.20;;;;;;5057122;28;20035;-75
2022/03/16 08:00:10;;;;;;;29.80;14.35;;;6.20;97.10;;;;;;5068755;28;20024;-75
2022/03/16 08:02:36;;;;;;;38.30;11.90;;;6.20;97.00;;;;;;5069734;28;20020;-75
2022/03/16 08:18:30;;;;;;;29.33;11.27;;;6.50;95.90;;;;;;5063878;28;20028;-75
2022/03/16 08:20:56;;;;;;;21.92;10.82;;;6.60;95.70;;;;;;5067599;28;20028;-75
2022/03/16 08:23:22;;;;;;;23.08;10.50;;;6.60;95.30;;;;;;5068925;28;20029;-75
2022/03/16 08:25:47;;;;;;;21.92;10.88;;;6.70;95.10;;;;;;5067815;28;20032;-75
2022/03/16 08:28:13;;;;;;;27.23;9.98;;;6.70;94.80;;;;;;5070188;28;20028;-75
2022/03/16 08:30:40;;;;;;;20.58;9.90;;;6.80;94.50;;;;;;5062019;28;20103;-76
2022/03/16 08:33:05;;;;;;;22.45;9.60;;;6.90;94.10;;;;;;5070071;28;20016;-75
2022/03/16 08:35:31;;;;;;;23.10;9.38;;;6.90;93.70;;;;;;5067443;28;20059;-75
2022/03/16 08:37:57;;;;;;;18.63;8.52;;;7.00;93.10;;;;;;5068608;28;20036;-75
2022/03/16 08:40:22;;;;;;;19.17;8.43;;;6.90;92.00;;;;;;5060876;28;20032;-75
2022/03/16 08:42:49;;;;;;;22.70;9.18;;;7.00;92.10;;;;;;5069373;28;20049;-75
2022/03/16 08:45:15;;;;;;;16.17;8.30;;;7.00;91.60;;;;;;5065331;28;20016;-75
2022/03/16 08:47:41;;;;;;;14.98;7.40;;;7.00;91.40;;;;;;5057665;28;20165;-75
2022/03/16 08:50:07;;;;;;;16.23;7.65;;;7.00;91.10;;;;;;5057509;28;20029;-75
2022/03/16 08:52:33;;;;;;;20.58;7.75;;;7.10;91.00;;;;;;5058783;28;20028;-75
2022/03/16 08:54:59;;;;;;;16.38;7.60;;;7.10;90.90;;;;;;5061057;28;20049;-76
2022/03/16 08:57:24;;;;;;;13.05;6.88;;;7.20;90.50;;;;;;5057632;28;20380;-76
2022/03/16 08:59:50;;;;;;;12.52;6.75;;;7.20;89.60;;;;;;5066540;28;20013;-76
2022/03/16 09:02:16;;;;;;;14.02;7.07;;;7.20;89.90;;;;;;5066926;28;20021;-77
2022/03/16 09:04:42;;;;;;;19.65;6.95;;;7.30;90.00;;;;;;5068177;28;20032;-76
2022/03/16 09:07:07;;;;;;;13.98;6.97;;;7.40;89.40;;;;;;5063146;28;20024;-76
2022/03/16 09:09:34;;;;;;;16.90;7.57;;;7.50;89.30;;;;;;5065807;28;20032;-77
2022/03/16 09:12:01;;;;;;;13.88;7.32;;;7.60;89.40;;;;;;5062328;28;20045;-76
2022/03/16 09:14:26;;;;;;;15.07;6.80;;;7.70;89.10;;;;;;5058040;28;20032;-76
2022/03/16 09:16:52;;;;;;;14.05;6.65;;;7.80;89.30;;;;;;5062213;28;20480;-76
2022/03/16 09:19:21;;;;;;;15.45;6.70;;;7.80;88.50;;;;;;5063868;28;20488;-76
2022/03/16 09:21:51;;;;;;;15.48;6.70;;;8.00;88.60;;;;;;5055342;28;20058;-75
2022/03/16 09:24:17;;;;;;;14.25;6.82;;;8.00;87.50;;;;;;5062641;28;20020;-73
2022/03/16 09:26:44;;;;;;;15.20;6.95;;;8.10;87.60;;;;;;5074494;28;20043;-77
2022/03/16 09:29:10;;;;;;;16.20;6.53;;;8.20;87.20;;;;;;5060470;28;20133;-75
2022/03/16 09:31:36;;;;;;;11.88;6.35;;;8.20;86.90;;;;;;5069491;28;20499;-74
2022/03/16 09:34:05;;;;;;;14.07;6.50;;;8.30;86.70;;;;;;5070878;28;20362;-75
2022/03/16 09:36:34;;;;;;;13.63;6.72;;;8.50;87.50;;;;;;5065047;28;20031;-75
2022/03/16 09:39:00;;;;;;;10.90;6.10;;;8.60;87.10;;;;;;5065526;28;20090;-74
2022/03/16 09:41:26;;;;;;;12.95;6.72;;;8.60;86.10;;;;;;5073083;28;20133;-72
2022/03/16 09:43:53;;;;;;;19.33;6.80;;;8.80;86.40;;;;;;5066541;28;20039;-74
2022/03/16 09:46:24;;;;;;;12.07;6.55;;;8.90;86.40;;;;;;5064717;28;20020;-74
2022/03/16 09:48:50;;;;;;;13.35;5.63;;;9.00;85.90;;;;;;5066639;28;20086;-74
2022/03/16 09:51:16;;;;;;;12.02;6.32;;;9.30;86.40;;;;;;5059144;28;20020;-73
2022/03/16 09:53:42;;;;;;;10.93;5.97;;;9.10;84.20;;;;;;5066776;28;20042;-75
2022/03/16 09:56:11;;;;;;;12.30;5.60;;;9.40;85.20;;;;;;5060062;28;20029;-74
2022/03/16 09:58:37;;;;;;;15.02;5.35;;;9.30;83.90;;;;;;5068333;28;20023;-78
2022/03/16 10:01:05;;;;;;;15.68;5.70;;;9.40;83.30;;;;;;5067191;28;20469;-76
2022/03/16 10:03:31;;;;;;;18.00;6.22;;;9.60;83.50;;;;;;5065613;28;20021;-76
2022/03/16 10:05:58;;;;;;;9.98;5.30;;;9.80;84.10;;;;;;5060580;28;20534;-76
2022/03/16 10:08:28;;;;;;;14.57;5.05;;;9.60;81.50;;;;;;5063516;28;20410;-76
2022/03/16 10:14:14;;;;;;;14.30;6.00;;;9.70;82.20;;;;;;5068861;28;20394;-75
2022/03/16 10:19:51;;;;;;;15.43;5.93;;;9.80;82.40;;;;;;5058448;28;20031;-75
2022/03/16 10:22:26;;;;;;;13.02;6.28;;;9.90;80.50;;;;;;5055536;28;20379;-75
2022/03/16 10:25:05;;;;;;;13.80;6.20;;;10.00;80.00;;;;;;5064500;28;20379;-75
2022/03/16 10:27:37;;;;;;;12.40;5.80;;;10.10;79.60;;;;;;5069911;28;20060;-75
2022/03/16 10:30:07;;;;;;;14.90;5.90;;;10.20;78.80;;;;;;5062879;28;20028;-76
2022/03/16 10:32:34;;;;;;;12.70;5.85;;;10.50;79.90;;;;;;5065050;28;21104;-76
2022/03/16 10:35:05;;;;;;;12.80;5.78;;;10.70;79.80;;;;;;5064672;28;20084;-76
2022/03/16 10:37:31;;;;;;;;;;;10.70;78.30;;;;;;5063623;28;20515;-75
2022/03/16 10:39:58;;;;;;;14.27;5.38;;;10.50;76.50;;;;;;5065089;28;20000;-75
2022/03/16 10:48:22;;;;;;;12.35;5.72;;;10.80;76.30;;;;;;5059926;28;20494;-73
2022/03/16 10:50:50;;;;;;;14.55;5.88;;;10.80;75.80;;;;;;5065970;28;20025;-75
2022/03/16 10:53:18;;;;;;;11.85;5.93;;;10.80;75.80;;;;;;5064763;28;20070;-75
2022/03/16 10:55:45;;;;;;;14.95;6.13;;;10.90;76.10;;;;;;5064946;28;20470;-74
2022/03/16 10:58:12;;;;;;;11.30;5.88;;;11.00;75.80;;;;;;5068825;28;20020;-74
2022/03/16 11:00:39;;;;;;;13.43;6.05;;;11.10;75.20;;;;;;5063059;28;20459;-75
2022/03/16 11:03:09;;;;;;;11.80;5.80;;;11.10;75.10;;;;;;5066370;28;20024;-75
2022/03/16 11:05:40;;;;;;;15.23;6.15;;;11.00;73.40;;;;;;5065010;28;20139;-75
2022/03/16 11:08:07;;;;;;;13.35;5.85;;;11.10;74.90;;;;;;5071185;28;20024;-75
2022/03/16 11:10:37;;;;;;;13.90;5.82;;;11.20;74.80;;;;;;5067858;28;20036;-75
2022/03/16 11:15:53;;;;;;;12.07;5.20;;;11.60;74.80;;;;;;5064074;28;20028;-75
2022/03/16 11:18:21;;;;;;;11.40;5.72;;;11.60;73.60;;;;;;5069602;28;20036;-76
2022/03/16 11:20:48;;;;;;;13.00;6.25;;;11.50;74.20;;;;;;5067164;28;20017;-75
2022/03/16 11:26:01;;;;;;;12.27;5.65;;;11.40;73.10;;;;;;5066887;28;20440;-75
2022/03/16 11:29:00;;;;;;;14.73;6.10;;;11.50;72.90;;;;;;5064187;28;20111;-75
2022/03/16 11:31:30;;;;;;;20.65;7.05;;;11.60;72.50;;;;;;5062023;28;20109;-75
2022/03/16 11:33:59;;;;;;;17.98;6.93;;;11.80;73.60;;;;;;5070790;28;20043;-75
2022/03/16 11:36:37;;;;;;;12.73;6.47;;;12.00;71.40;;;;;;5071334;28;20036;-76
2022/03/16 11:39:14;;;;;;;15.40;7.30;;;11.90;69.90;;;;;;5056743;28;20032;-73
2022/03/16 11:41:48;;;;;;;12.95;6.15;;;12.20;71.00;;;;;;5062581;28;20052;-74
2022/03/16 11:44:26;;;;;;;12.13;6.32;;;12.50;71.10;;;;;;5055400;28;20035;-75
2022/03/16 11:47:09;;;;;;;12.02;6.13;;;12.60;70.80;;;;;;5061759;28;20043;-75
2022/03/16 11:49:41;;;;;;;10.57;6.03;;;12.60;68.30;;;;;;5067560;28;20024;-75
2022/03/16 11:52:08;;;;;;;13.38;5.93;;;12.60;68.00;;;;;;5057055;28;20033;-75
2022/03/16 11:54:52;;;;;;;14.77;5.95;;;12.70;68.00;;;;;;5060095;28;20028;-74
2022/03/16 11:57:51;;;;;;;11.80;5.15;;;12.90;68.10;;;;;;5066050;28;20032;-75
2022/03/16 12:00:17;;;;;;;13.05;5.82;;;13.00;69.10;;;;;;5061100;28;20017;-75
2022/03/16 12:02:54;;;;;;;15.50;5.95;;;13.40;66.90;;;;;;5064883;28;20107;-75
2022/03/16 12:05:22;;;;;;;11.27;5.28;;;13.90;67.00;;;;;;5065428;28;20035;-75
2022/03/16 12:08:07;;;;;;;10.35;5.40;;;13.80;65.60;;;;;;5067562;28;20020;-75
2022/03/16 12:10:45;;;;;;;17.85;6.05;;;13.40;64.40;;;;;;5067376;28;20032;-75
2022/03/16 12:13:12;;;;;;;12.27;5.70;;;13.70;64.60;;;;;;5072750;28;20470;-75
2022/03/16 12:15:38;;;;;;;10.90;5.07;;;14.10;65.20;;;;;;5259240;22;20024;-82
2022/03/16 12:20:36;;;;;;;14.60;4.95;;;14.10;62.80;;;;;;5038584;28;20056;-82
2022/03/16 12:23:10;;;;;;;8.65;4.72;;;14.50;62.50;;;;;;5042706;28;20100;-82
2022/03/16 12:25:42;;;;;;;10.32;4.35;;;15.00;60.40;;;;;;5042352;28;20090;-82
2022/03/16 12:31:00;;;;;;;9.27;4.35;;;13.80;61.40;;;;;;5044878;28;20166;-82
2022/03/16 12:33:37;;;;;;;10.15;4.43;;;13.30;63.10;;;;;;5283408;22;20019;-84
2022/03/16 12:36:05;;;;;;;12.00;4.47;;;13.90;62.80;;;;;;5082509;28;20029;-84
2022/03/16 12:38:33;;;;;;;10.43;4.28;;;13.60;62.20;;;;;;5082371;28;20230;-84
2022/03/16 12:43:45;;;;;;;7.82;4.05;;;14.10;61.10;;;;;;5083312;28;20156;-84
2022/03/16 12:46:28;;;;;;;10.15;4.38;;;14.30;60.90;;;;;;5062445;28;20083;-84
2022/03/16 12:48:56;;;;;;;7.95;3.78;;;14.20;59.20;;;;;;5082726;28;20021;-84
2022/03/16 12:51:37;;;;;;;7.40;3.75;;;13.90;59.80;;;;;;5085736;28;20479;-84
2022/03/16 12:54:05;;;;;;;8.90;3.67;;;13.60;60.50;;;;;;5061693;28;20447;-84
2022/03/16 12:56:32;;;;;;;7.03;3.58;;;13.50;61.90;;;;;;5067336;28;20039;-84
2022/03/16 12:58:57;;;;;;;7.68;3.50;;;13.70;59.20;;;;;;5081331;28;20028;-84
2022/03/16 13:01:23;;;;;;;10.90;3.90;;;13.70;62.00;;;;;;5077267;28;20035;-84
2022/03/16 13:04:01;;;;;;;7.88;3.25;;;14.00;58.60;;;;;;5074305;28;20114;-84
2022/03/16 13:06:33;;;;;;;8.10;3.50;;;14.50;57.30;;;;;;5085447;28;20031;-83
2022/03/16 13:09:06;;;;;;;8.82;3.53;;;14.30;59.10;;;;;;5072938;28;20041;-85
2022/03/16 13:11:32;;;;;;;8.60;3.63;;;14.40;58.80;;;;;;5093253;28;20393;-84
2022/03/16 13:13:59;;;;;;;8.82;3.78;;;14.50;57.80;;;;;;5066879;28;20406;-84